sensor_id;sensor_type;location;lat;lon;timestamp;pressure;altitude;pressure_sealevel;temperature;humidity
41202;BME280;26936;50.524;8.684;2023-03-04T00:01:31;100132.53;;;-1.85;100.00
41202;BME280;26936;50.524;8.684;2023-03-04T00:03:57;100139.22;;;-1.86;100.00
41202;BME280;26936;50.524;8.684;2023-03-04T00:06:22;100142.69;;;-1.89;100.00
41202;BME280;26936;50.524;8.684;2023-03-04T00:08:47;100137.84;;;-1.92;100.00
41202;BME280;26936;50.524;8.684;2023-03-04T00:11:13;100138.56;;;-1.95;100.00
41202;BME280;26936;50.524;8.684;2023-03-04T00:13:38;100140.09;;;-1.98;100.00
41202;BME280;26936;50.524;8.684;2023-03-04T00:16:03;100136.88;;;-2.00;100.00
41202;BME280;26936;50.524;8.684;2023-03-04T00:18:29;100137.56;;;-2.03;100.00
41202;BME280;26936;50.524;8.684;2023-03-04T00:20:54;100135.59;;;-2.02;100.00
41202;BME280;26936;50.524;8.684;2023-03-04T00:23:19;100130.63;;;-1.97;100.00
41202;BME280;26936;50.524;8.684;2023-03-04T00:25:45;100140.09;;;-1.98;100.00
41202;BME280;26936;50.524;8.684;2023-03-04T00:28:10;100129.69;;;-1.89;100.00
41202;BME280;26936;50.524;8.684;2023-03-04T00:30:35;100136.38;;;-1.90;100.00
41202;BME280;26936;50.524;8.684;2023-03-04T00:33:00;100134.50;;;-1.86;100.00
41202;BME280;26936;50.524;8.684;2023-03-04T00:35:26;100134.34;;;-1.77;100.00
41202;BME280;26936;50.524;8.684;2023-03-04T00:37:51;100136.50;;;-1.71;100.00
41202;BME280;26936;50.524;8.684;2023-03-04T00:40:16;100135.88;;;-1.64;100.00
41202;BME280;26936;50.524;8.684;2023-03-04T00:42:41;100136.34;;;-1.62;100.00
41202;BME280;26936;50.524;8.684;2023-03-04T00:45:08;100131.03;;;-1.55;100.00
41202;BME280;26936;50.524;8.684;2023-03-04T00:47:33;100127.28;;;-1.47;100.00
41202;BME280;26936;50.524;8.684;2023-03-04T00:49:59;100118.03;;;-1.39;100.00
41202;BME280;26936;50.524;8.684;2023-03-04T00:52:24;100122.13;;;-1.33;100.00
41202;BME280;26936;50.524;8.684;2023-03-04T00:54:49;100119.19;;;-1.24;100.00
41202;BME280;26936;50.524;8.684;2023-03-04T00:57:15;100119.34;;;-1.17;100.00
41202;BME280;26936;50.524;8.684;2023-03-04T00:59:40;100120.25;;;-1.13;100.00
41202;BME280;26936;50.524;8.684;2023-03-04T01:02:07;100109.88;;;-1.01;100.00
41202;BME280;26936;50.524;8.684;2023-03-04T01:04:33;100109.97;;;-0.97;100.00
41202;BME280;26936;50.524;8.684;2023-03-04T01:06:58;100106.13;;;-0.93;100.00
41202;BME280;26936;50.524;8.684;2023-03-04T01:09:23;100108.19;;;-0.90;100.00
41202;BME280;26936;50.524;8.684;2023-03-04T01:11:51;100102.72;;;-0.86;100.00
41202;BME280;26936;50.524;8.684;2023-03-04T01:14:16;100103.63;;;-0.82;100.00
41202;BME280;26936;50.524;8.684;2023-03-04T01:16:41;100101.31;;;-0.80;100.00
41202;BME280;26936;50.524;8.684;2023-03-04T01:19:06;100108.97;;;-0.74;100.00
41202;BME280;26936;50.524;8.684;2023-03-04T01:21:32;100098.69;;;-0.73;100.00
41202;BME280;26936;50.524;8.684;2023-03-04T01:23:57;100093.69;;;-0.68;100.00
41202;BME280;26936;50.524;8.684;2023-03-04T01:26:22;100099.94;;;-0.71;100.00
41202;BME280;26936;50.524;8.684;2023-03-04T01:28:48;100096.53;;;-0.64;100.00
41202;BME280;26936;50.524;8.684;2023-03-04T01:31:13;100087.25;;;-0.72;100.00
41202;BME280;26936;50.524;8.684;2023-03-04T01:33:38;100083.78;;;-0.69;100.00
41202;BME280;26936;50.524;8.684;2023-03-04T01:36:04;100079.59;;;-0.78;100.00
41202;BME280;26936;50.524;8.684;2023-03-04T01:38:29;100073.00;;;-0.74;100.00
41202;BME280;26936;50.524;8.684;2023-03-04T01:40:54;100067.91;;;-0.72;100.00
41202;BME280;26936;50.524;8.684;2023-03-04T01:43:26;100063.72;;;-0.66;100.00
41202;BME280;26936;50.524;8.684;2023-03-04T01:45:53;100070.63;;;-0.56;100.00
41202;BME280;26936;50.524;8.684;2023-03-04T01:48:24;100060.44;;;-0.52;100.00
41202;BME280;26936;50.524;8.684;2023-03-04T01:50:50;100063.28;;;-0.49;100.00
41202;BME280;26936;50.524;8.684;2023-03-04T01:53:25;100056.66;;;-0.44;100.00
41202;BME280;26936;50.524;8.684;2023-03-04T01:55:53;100056.66;;;-0.44;100.00
41202;BME280;26936;50.524;8.684;2023-03-04T01:58:19;100054.69;;;-0.44;100.00
41202;BME280;26936;50.524;8.684;2023-03-04T02:00:44;100048.88;;;-0.39;100.00
41202;BME280;26936;50.524;8.684;2023-03-04T02:03:12;100048.56;;;-0.34;100.00
41202;BME280;26936;50.524;8.684;2023-03-04T02:05:41;100047.91;;;-0.27;100.00
41202;BME280;26936;50.524;8.684;2023-03-04T02:08:08;100044.78;;;-0.26;100.00
41202;BME280;26936;50.524;8.684;2023-03-04T02:10:33;100043.03;;;-0.15;100.00
41202;BME280;26936;50.524;8.684;2023-03-04T02:13:00;100042.00;;;-0.07;100.00
41202;BME280;26936;50.524;8.684;2023-03-04T02:15:26;100036.31;;;0.06;100.00
41202;BME280;26936;50.524;8.684;2023-03-04T02:17:51;100024.66;;;-0.04;100.00
41202;BME280;26936;50.524;8.684;2023-03-04T02:23:03;100034.13;;;-0.05;100.00
41202;BME280;26936;50.524;8.684;2023-03-04T02:25:36;100025.88;;;-0.01;100.00
41202;BME280;26936;50.524;8.684;2023-03-04T02:28:02;100026.19;;;-0.06;100.00
41202;BME280;26936;50.524;8.684;2023-03-04T02:30:28;100026.69;;;-0.01;100.00
41202;BME280;26936;50.524;8.684;2023-03-04T02:32:53;100026.19;;;-0.06;100.00
41202;BME280;26936;50.524;8.684;2023-03-04T02:35:19;100022.31;;;-0.02;100.00
41202;BME280;26936;50.524;8.684;2023-03-04T02:37:45;100031.50;;;0.03;100.00
41202;BME280;26936;50.524;8.684;2023-03-04T02:40:18;100025.97;;;0.03;100.00
41202;BME280;26936;50.524;8.684;2023-03-04T02:42:45;100012.19;;;0.06;100.00
41202;BME280;26936;50.524;8.684;2023-03-04T02:45:30;100012.56;;;0.05;100.00
41202;BME280;26936;50.524;8.684;2023-03-04T02:47:58;100014.28;;;0.13;100.00
41202;BME280;26936;50.524;8.684;2023-03-04T02:50:23;100018.19;;;0.12;100.00
41202;BME280;26936;50.524;8.684;2023-03-04T02:52:50;100013.47;;;0.12;100.00
41202;BME280;26936;50.524;8.684;2023-03-04T02:55:15;100007.13;;;0.12;100.00
41202;BME280;26936;50.524;8.684;2023-03-04T02:57:40;100016.69;;;0.14;100.00
41202;BME280;26936;50.524;8.684;2023-03-04T03:00:06;100010.78;;;0.16;100.00
41202;BME280;26936;50.524;8.684;2023-03-04T03:02:32;100020.75;;;0.20;100.00
41202;BME280;26936;50.524;8.684;2023-03-04T03:04:57;100012.13;;;0.25;100.00
41202;BME280;26936;50.524;8.684;2023-03-04T03:07:22;100013.38;;;0.28;100.00
41202;BME280;26936;50.524;8.684;2023-03-04T03:09:47;100008.91;;;0.23;100.00
41202;BME280;26936;50.524;8.684;2023-03-04T03:12:13;100011.38;;;0.28;100.00
41202;BME280;26936;50.524;8.684;2023-03-04T03:14:38;100008.91;;;0.23;100.00
41202;BME280;26936;50.524;8.684;2023-03-04T03:17:03;100006.59;;;0.25;100.00
41202;BME280;26936;50.524;8.684;2023-03-04T03:19:29;99999.09;;;0.26;100.00
41202;BME280;26936;50.524;8.684;2023-03-04T03:21:54;100001.94;;;0.29;100.00
41202;BME280;26936;50.524;8.684;2023-03-04T03:24:19;100000.00;;;0.33;100.00
41202;BME280;26936;50.524;8.684;2023-03-04T03:26:44;100005.09;;;0.31;100.00
41202;BME280;26936;50.524;8.684;2023-03-04T03:29:10;100007.34;;;0.22;100.00
41202;BME280;26936;50.524;8.684;2023-03-04T03:31:35;100006.22;;;0.27;100.00
41202;BME280;26936;50.524;8.684;2023-03-04T03:34:00;100001.47;;;0.27;100.00
41202;BME280;26936;50.524;8.684;2023-03-04T03:36:25;100000.44;;;0.35;100.00
41202;BME280;26936;50.524;8.684;2023-03-04T03:38:51;99998.84;;;0.34;100.00
41202;BME280;26936;50.524;8.684;2023-03-04T03:41:16;99997.34;;;0.40;100.00
41202;BME280;26936;50.524;8.684;2023-03-04T03:43:41;99995.41;;;0.41;100.00
41202;BME280;26936;50.524;8.684;2023-03-04T03:46:06;99997.34;;;0.40;100.00
41202;BME280;26936;50.524;8.684;2023-03-04T03:48:32;99998.16;;;0.41;100.00
41202;BME280;26936;50.524;8.684;2023-03-04T03:50:57;100001.34;;;0.43;100.00
41202;BME280;26936;50.524;8.684;2023-03-04T03:53:22;99996.97;;;0.42;100.00
41202;BME280;26936;50.524;8.684;2023-03-04T03:55:48;99997.84;;;0.46;100.00
41202;BME280;26936;50.524;8.684;2023-03-04T03:58:13;99997.53;;;0.51;100.00
41202;BME280;26936;50.524;8.684;2023-03-04T04:00:38;99994.41;;;0.52;100.00
41202;BME280;26936;50.524;8.684;2023-03-04T04:03:03;99995.56;;;0.51;100.00
41202;BME280;26936;50.524;8.684;2023-03-04T04:05:29;99996.75;;;0.50;100.00
41202;BME280;26936;50.524;8.684;2023-03-04T04:07:54;99991.25;;;0.54;100.00
41202;BME280;26936;50.524;8.684;2023-03-04T04:10:19;99993.59;;;0.52;100.00
41202;BME280;26936;50.524;8.684;2023-03-04T04:12:45;99992.25;;;0.42;100.00
41202;BME280;26936;50.524;8.684;2023-03-04T04:15:11;99987.13;;;0.44;100.00
41202;BME280;26936;50.524;8.684;2023-03-04T04:17:37;99994.72;;;0.47;100.00
41202;BME280;26936;50.524;8.684;2023-03-04T04:20:04;99988.06;;;0.52;100.00
41202;BME280;26936;50.524;8.684;2023-03-04T04:22:29;99985.72;;;0.54;100.00
41202;BME280;26936;50.524;8.684;2023-03-04T04:24:54;99987.69;;;0.53;100.00
41202;BME280;26936;50.524;8.684;2023-03-04T04:27:20;99990.88;;;0.55;100.00
41202;BME280;26936;50.524;8.684;2023-03-04T04:29:45;99982.19;;;0.57;100.00
41202;BME280;26936;50.524;8.684;2023-03-04T04:32:10;99972.69;;;0.58;100.00
41202;BME280;26936;50.524;8.684;2023-03-04T04:34:37;99974.72;;;0.61;100.00
41202;BME280;26936;50.524;8.684;2023-03-04T04:37:02;99983.03;;;0.61;100.00
41202;BME280;26936;50.524;8.684;2023-03-04T04:39:28;99977.13;;;0.62;100.00
41202;BME280;26936;50.524;8.684;2023-03-04T04:41:53;99975.22;;;0.66;100.00
41202;BME280;26936;50.524;8.684;2023-03-04T04:44:18;99976.03;;;0.67;100.00
41202;BME280;26936;50.524;8.684;2023-03-04T04:46:43;99971.31;;;0.71;100.00
41202;BME280;26936;50.524;8.684;2023-03-04T04:49:09;99974.09;;;0.71;100.00
41202;BME280;26936;50.524;8.684;2023-03-04T04:51:36;99978.09;;;0.73;100.00
41202;BME280;26936;50.524;8.684;2023-03-04T04:54:02;99978.94;;;0.77;100.00
41202;BME280;26936;50.524;8.684;2023-03-04T04:56:28;99973.03;;;0.79;100.00
41202;BME280;26936;50.524;8.684;2023-03-04T04:58:56;99973.84;;;0.79;100.00
41202;BME280;26936;50.524;8.684;2023-03-04T05:01:22;99970.25;;;0.79;100.00
41202;BME280;26936;50.524;8.684;2023-03-04T05:03:48;99976.59;;;0.79;100.00
41202;BME280;26936;50.524;8.684;2023-03-04T05:06:14;99970.25;;;0.79;100.00
41202;BME280;26936;50.524;8.684;2023-03-04T05:08:40;99970.69;;;0.81;100.00
41202;BME280;26936;50.524;8.684;2023-03-04T05:11:06;99969.50;;;0.82;100.00
41202;BME280;26936;50.524;8.684;2023-03-04T05:13:31;99969.19;;;0.87;100.00
41202;BME280;26936;50.524;8.684;2023-03-04T05:15:57;99979.81;;;0.81;100.00
41202;BME280;26936;50.524;8.684;2023-03-04T05:18:24;99969.50;;;0.82;100.00
41202;BME280;26936;50.524;8.684;2023-03-04T05:20:55;99966.72;;;0.82;100.00
41202;BME280;26936;50.524;8.684;2023-03-04T05:23:21;99967.97;;;0.84;100.00
41202;BME280;26936;50.524;8.684;2023-03-04T05:25:46;99968.03;;;0.88;100.00
41202;BME280;26936;50.524;8.684;2023-03-04T05:28:12;99969.63;;;0.89;100.00
41202;BME280;26936;50.524;8.684;2023-03-04T05:30:39;99969.25;;;0.90;100.00
41202;BME280;26936;50.524;8.684;2023-03-04T05:33:05;99970.47;;;0.93;100.00
41202;BME280;26936;50.524;8.684;2023-03-04T05:35:33;99969.66;;;0.92;100.00
41202;BME280;26936;50.524;8.684;2023-03-04T05:37:59;99967.72;;;0.96;100.00
41202;BME280;26936;50.524;8.684;2023-03-04T05:40:24;99968.22;;;1.02;100.00
41202;BME280;26936;50.524;8.684;2023-03-04T05:42:50;99964.69;;;1.05;100.00
41202;BME280;26936;50.524;8.684;2023-03-04T05:45:15;99974.56;;;1.02;100.00
41202;BME280;26936;50.524;8.684;2023-03-04T05:47:40;99974.19;;;1.04;100.00
41202;BME280;26936;50.524;8.684;2023-03-04T05:50:06;99970.66;;;1.07;100.00
41202;BME280;26936;50.524;8.684;2023-03-04T05:52:31;99971.09;;;1.09;100.00
41202;BME280;26936;50.524;8.684;2023-03-04T05:54:57;99971.88;;;1.09;100.00
41202;BME280;26936;50.524;8.684;2023-03-04T05:57:22;99976.28;;;1.10;100.00
41202;BME280;26936;50.524;8.684;2023-03-04T05:59:47;99979.47;;;1.12;100.00
41202;BME280;26936;50.524;8.684;2023-03-04T06:02:12;99984.63;;;1.14;100.00
41202;BME280;26936;50.524;8.684;2023-03-04T06:04:38;99981.91;;;1.17;100.00
41202;BME280;26936;50.524;8.684;2023-03-04T06:07:03;99987.03;;;1.15;100.00
41202;BME280;26936;50.524;8.684;2023-03-04T06:09:28;99987.47;;;1.17;100.00
41202;BME280;26936;50.524;8.684;2023-03-04T06:11:53;99989.88;;;1.19;100.00
41202;BME280;26936;50.524;8.684;2023-03-04T06:14:19;99992.25;;;1.20;100.00
41202;BME280;26936;50.524;8.684;2023-03-04T06:16:44;99996.69;;;1.25;100.00
41202;BME280;26936;50.524;8.684;2023-03-04T06:19:09;100001.41;;;1.24;100.00
41202;BME280;26936;50.524;8.684;2023-03-04T06:21:34;99996.31;;;1.26;100.00
41202;BME280;26936;50.524;8.684;2023-03-04T06:24:00;99996.78;;;1.32;100.00
41202;BME280;26936;50.524;8.684;2023-03-04T06:26:25;99999.94;;;1.30;100.00
41202;BME280;26936;50.524;8.684;2023-03-04T06:28:50;100005.88;;;1.32;100.00
41202;BME280;26936;50.524;8.684;2023-03-04T06:31:16;100002.34;;;1.35;100.00
41202;BME280;26936;50.524;8.684;2023-03-04T06:33:41;100010.72;;;1.39;100.00
41202;BME280;26936;50.524;8.684;2023-03-04T06:36:06;100005.19;;;1.39;100.00
41202;BME280;26936;50.524;8.684;2023-03-04T06:38:32;100008.75;;;1.39;100.00
41202;BME280;26936;50.524;8.684;2023-03-04T06:41:07;100007.63;;;1.44;100.00
41202;BME280;26936;50.524;8.684;2023-03-04T06:43:33;100003.72;;;1.49;100.00
41202;BME280;26936;50.524;8.684;2023-03-04T06:45:58;100012.91;;;1.53;100.00
41202;BME280;26936;50.524;8.684;2023-03-04T06:48:24;100010.94;;;1.53;100.00
41202;BME280;26936;50.524;8.684;2023-03-04T06:50:49;100014.97;;;1.59;100.00
41202;BME280;26936;50.524;8.684;2023-03-04T06:53:14;100006.31;;;1.64;100.00
41202;BME280;26936;50.524;8.684;2023-03-04T06:55:40;100009.91;;;1.68;100.00
41202;BME280;26936;50.524;8.684;2023-03-04T06:58:05;100016.28;;;1.69;100.00
41202;BME280;26936;50.524;8.684;2023-03-04T07:00:30;100014.78;;;1.78;100.00
41202;BME280;26936;50.524;8.684;2023-03-04T07:02:57;100018.00;;;1.80;100.00
41202;BME280;26936;50.524;8.684;2023-03-04T07:05:23;100016.47;;;1.86;100.00
41202;BME280;26936;50.524;8.684;2023-03-04T07:07:48;100030.03;;;1.91;100.00
41202;BME280;26936;50.524;8.684;2023-03-04T07:10:15;100040.03;;;1.96;100.00
41202;BME280;26936;50.524;8.684;2023-03-04T07:12:40;100030.13;;;1.98;100.00
41202;BME280;26936;50.524;8.684;2023-03-04T07:15:06;100028.97;;;2.03;100.00
41202;BME280;26936;50.524;8.684;2023-03-04T07:17:31;100028.19;;;2.06;100.00
41202;BME280;26936;50.524;8.684;2023-03-04T07:19:56;100036.56;;;2.09;100.00
41202;BME280;26936;50.524;8.684;2023-03-04T07:22:21;100036.66;;;2.16;100.00
41202;BME280;26936;50.524;8.684;2023-03-04T07:24:47;100035.94;;;2.23;100.00
41202;BME280;26936;50.524;8.684;2023-03-04T07:27:12;100040.34;;;2.27;100.00
41202;BME280;26936;50.524;8.684;2023-03-04T07:29:37;100041.22;;;2.35;100.00
41202;BME280;26936;50.524;8.684;2023-03-04T07:32:06;100039.69;;;2.41;100.00
41202;BME280;26936;50.524;8.684;2023-03-04T07:34:32;100041.28;;;2.42;100.00
41202;BME280;26936;50.524;8.684;2023-03-04T07:36:57;100045.34;;;2.48;100.00
41202;BME280;26936;50.524;8.684;2023-03-04T07:39:23;100055.25;;;2.49;100.00
41202;BME280;26936;50.524;8.684;2023-03-04T07:41:48;100048.53;;;2.53;100.00
41202;BME280;26936;50.524;8.684;2023-03-04T07:44:13;100046.66;;;2.61;100.00
41202;BME280;26936;50.524;8.684;2023-03-04T07:46:39;100042.28;;;2.63;100.00
41202;BME280;26936;50.524;8.684;2023-03-04T07:49:04;100049.88;;;2.70;100.00
41202;BME280;26936;50.524;8.684;2023-03-04T07:51:30;100048.75;;;2.78;100.00
41202;BME280;26936;50.524;8.684;2023-03-04T07:53:57;100046.44;;;2.84;100.00
41202;BME280;26936;50.524;8.684;2023-03-04T07:56:26;100046.81;;;2.82;100.00
41202;BME280;26936;50.524;8.684;2023-03-04T07:58:52;100039.75;;;2.92;100.00
41202;BME280;26936;50.524;8.684;2023-03-04T08:01:21;100048.13;;;2.99;99.76
41202;BME280;26936;50.524;8.684;2023-03-04T08:03:46;100041.41;;;3.00;98.08
41202;BME280;26936;50.524;8.684;2023-03-04T08:06:18;100047.38;;;3.05;98.20
41202;BME280;26936;50.524;8.684;2023-03-04T08:08:44;100046.63;;;3.08;97.45
41202;BME280;26936;50.524;8.684;2023-03-04T08:11:18;100051.44;;;3.15;97.45
41202;BME280;26936;50.524;8.684;2023-03-04T08:13:44;100050.28;;;3.19;97.16
41202;BME280;26936;50.524;8.684;2023-03-04T08:16:17;100047.13;;;3.24;96.92
41202;BME280;26936;50.524;8.684;2023-03-04T08:18:44;100046.00;;;3.32;97.11
41202;BME280;26936;50.524;8.684;2023-03-04T08:21:11;100047.63;;;3.40;96.70
41202;BME280;26936;50.524;8.684;2023-03-04T08:23:37;100043.25;;;3.43;97.46
41202;BME280;26936;50.524;8.684;2023-03-04T08:26:15;100037.34;;;3.51;96.57
41202;BME280;26936;50.524;8.684;2023-03-04T08:28:41;100036.97;;;3.56;96.03
41202;BME280;26936;50.524;8.684;2023-03-04T08:31:07;100039.78;;;3.60;95.87
41202;BME280;26936;50.524;8.684;2023-03-04T08:33:33;100044.59;;;3.66;96.16
41202;BME280;26936;50.524;8.684;2023-03-04T08:35:58;100040.59;;;3.67;95.46
41202;BME280;26936;50.524;8.684;2023-03-04T08:38:24;100045.41;;;3.74;95.13
41202;BME280;26936;50.524;8.684;2023-03-04T08:40:55;100044.25;;;3.78;94.06
41202;BME280;26936;50.524;8.684;2023-03-04T08:43:22;100047.09;;;3.96;93.88
41202;BME280;26936;50.524;8.684;2023-03-04T08:45:48;100041.13;;;3.97;93.26
41202;BME280;26936;50.524;8.684;2023-03-04T08:48:14;100041.56;;;4.06;93.47
41202;BME280;26936;50.524;8.684;2023-03-04T08:50:40;100038.00;;;4.13;92.35
41202;BME280;26936;50.524;8.684;2023-03-04T08:53:05;100039.22;;;4.15;90.90
41202;BME280;26936;50.524;8.684;2023-03-04T08:55:30;100046.44;;;4.31;90.19
41202;BME280;26936;50.524;8.684;2023-03-04T08:57:56;100044.00;;;4.26;88.82
41202;BME280;26936;50.524;8.684;2023-03-04T09:00:21;100044.84;;;4.37;88.75
41202;BME280;26936;50.524;8.684;2023-03-04T09:02:48;100046.03;;;4.46;88.54
41202;BME280;26936;50.524;8.684;2023-03-04T09:05:13;100041.25;;;4.54;88.50
41202;BME280;26936;50.524;8.684;2023-03-04T09:07:38;100041.66;;;4.52;87.15
41202;BME280;26936;50.524;8.684;2023-03-04T09:10:04;100039.69;;;4.56;87.39
41202;BME280;26936;50.524;8.684;2023-03-04T09:12:29;100040.50;;;4.57;87.75
41202;BME280;26936;50.524;8.684;2023-03-04T09:14:55;100039.28;;;4.68;87.70
41202;BME280;26936;50.524;8.684;2023-03-04T09:17:20;100040.88;;;4.59;87.53
41202;BME280;26936;50.524;8.684;2023-03-04T09:19:45;100042.06;;;4.72;87.18
41202;BME280;26936;50.524;8.684;2023-03-04T09:22:11;100044.06;;;4.75;85.78
41202;BME280;26936;50.524;8.684;2023-03-04T09:24:36;100049.66;;;4.71;85.67
41202;BME280;26936;50.524;8.684;2023-03-04T09:27:01;100047.66;;;4.72;86.13
41202;BME280;26936;50.524;8.684;2023-03-04T09:29:27;100050.44;;;4.72;86.38
41202;BME280;26936;50.524;8.684;2023-03-04T09:31:52;100051.25;;;4.72;86.12
41202;BME280;26936;50.524;8.684;2023-03-04T09:34:17;100042.88;;;4.76;86.33
41202;BME280;26936;50.524;8.684;2023-03-04T09:36:42;100048.47;;;4.79;85.96
41202;BME280;26936;50.524;8.684;2023-03-04T09:39:08;100043.28;;;4.81;85.35
41202;BME280;26936;50.524;8.684;2023-03-04T09:41:41;100042.50;;;4.77;85.54
41202;BME280;26936;50.524;8.684;2023-03-04T09:44:32;100042.88;;;4.76;85.45
41202;BME280;26936;50.524;8.684;2023-03-04T09:47:03;100050.47;;;4.79;85.30
41202;BME280;26936;50.524;8.684;2023-03-04T09:49:30;100042.50;;;4.84;86.02
41202;BME280;26936;50.524;8.684;2023-03-04T09:52:02;100044.47;;;4.84;85.65
41202;BME280;26936;50.524;8.684;2023-03-04T10:00:19;100044.47;;;4.94;85.29
41202;BME280;26936;50.524;8.684;2023-03-04T10:03:07;100037.31;;;4.93;85.31
41202;BME280;26936;50.524;8.684;2023-03-04T10:10:59;100036.91;;;5.09;84.47
41202;BME280;26936;50.524;8.684;2023-03-04T10:13:53;100026.53;;;5.13;84.76
41202;BME280;26936;50.524;8.684;2023-03-04T10:16:19;100033.69;;;5.31;83.92
41202;BME280;26936;50.524;8.684;2023-03-04T10:18:50;100030.88;;;5.28;84.12
41202;BME280;26936;50.524;8.684;2023-03-04T10:21:34;100032.88;;;5.41;83.46
41202;BME280;26936;50.524;8.684;2023-03-04T10:24:17;100021.63;;;5.66;83.03
41202;BME280;26936;50.524;8.684;2023-03-04T10:26:45;100017.94;;;5.94;81.58
41202;BME280;26936;50.524;8.684;2023-03-04T10:29:16;100022.31;;;6.02;80.10
41202;BME280;26936;50.524;8.684;2023-03-04T10:31:42;100021.41;;;6.15;78.54
41202;BME280;26936;50.524;8.684;2023-03-04T10:34:11;100020.09;;;6.34;77.87
41202;BME280;26936;50.524;8.684;2023-03-04T10:36:46;100020.44;;;6.43;77.24
41202;BME280;26936;50.524;8.684;2023-03-04T10:39:48;100012.84;;;6.47;76.49
41202;BME280;26936;50.524;8.684;2023-03-04T10:44:42;99994.75;;;6.62;76.61
41202;BME280;26936;50.524;8.684;2023-03-04T10:47:09;99996.25;;;6.73;76.32
41202;BME280;26936;50.524;8.684;2023-03-04T10:49:52;99996.72;;;6.65;74.90
41202;BME280;26936;50.524;8.684;2023-03-04T10:52:26;99995.81;;;6.78;74.21
41202;BME280;26936;50.524;8.684;2023-03-04T10:54:54;99992.94;;;6.85;73.92
41202;BME280;26936;50.524;8.684;2023-03-04T10:57:26;99992.91;;;6.89;73.47
41202;BME280;26936;50.524;8.684;2023-03-04T11:00:01;99991.09;;;6.68;74.12
41202;BME280;26936;50.524;8.684;2023-03-04T11:02:32;99985.09;;;6.66;74.73
41202;BME280;26936;50.524;8.684;2023-03-04T11:07:49;99979.06;;;6.71;73.41
41202;BME280;26936;50.524;8.684;2023-03-04T11:10:19;99980.19;;;6.77;74.23
41202;BME280;26936;50.524;8.684;2023-03-04T11:15:22;99977.22;;;6.99;75.11
41202;BME280;26936;50.524;8.684;2023-03-04T11:17:54;99971.09;;;7.11;73.93
41202;BME280;26936;50.524;8.684;2023-03-04T11:20:33;99970.06;;;7.31;73.69
41202;BME280;26936;50.524;8.684;2023-03-04T11:23:05;99974.94;;;7.27;72.47
41202;BME280;26936;50.524;8.684;2023-03-04T11:25:38;99962.81;;;7.37;71.50
41202;BME280;26936;50.524;8.684;2023-03-04T11:28:12;99967.34;;;7.61;71.43
41202;BME280;26936;50.524;8.684;2023-03-04T11:30:43;99968.50;;;7.64;70.08
41202;BME280;26936;50.524;8.684;2023-03-04T11:33:20;99968.06;;;7.65;70.13
41202;BME280;26936;50.524;8.684;2023-03-04T11:35:51;99964.69;;;7.47;70.00
41202;BME280;26936;50.524;8.684;2023-03-04T11:38:25;99952.25;;;7.52;70.24
41202;BME280;26936;50.524;8.684;2023-03-04T11:40:56;99961.34;;;7.59;70.93
41202;BME280;26936;50.524;8.684;2023-03-04T11:48:54;99950.88;;;7.93;68.48
41202;BME280;26936;50.524;8.684;2023-03-04T12:00:03;99932.63;;;7.82;69.42
41202;BME280;26936;50.524;8.684;2023-03-04T12:11:37;99920.28;;;7.76;68.69
41202;BME280;26936;50.524;8.684;2023-03-04T12:14:20;99914.38;;;7.67;70.10
41202;BME280;26936;50.524;8.684;2023-03-04T12:19:45;99908.69;;;7.74;69.60
41202;BME280;26936;50.524;8.684;2023-03-04T12:22:26;99907.63;;;7.64;68.91
41202;BME280;26936;50.524;8.684;2023-03-04T12:44:33;99873.28;;;7.27;70.76
41202;BME280;26936;50.524;8.684;2023-03-04T12:47:26;99874.38;;;7.33;71.12
41202;BME280;26936;50.524;8.684;2023-03-04T12:55:39;99853.97;;;7.36;71.91
41202;BME280;26936;50.524;8.684;2023-03-04T12:58:14;99863.78;;;7.47;72.11
41202;BME280;26936;50.524;8.684;2023-03-04T13:01:02;99853.34;;;7.51;72.09
41202;BME280;26936;50.524;8.684;2023-03-04T13:03:38;99850.41;;;7.62;71.10
41202;BME280;26936;50.524;8.684;2023-03-04T13:14:00;99847.44;;;7.72;71.11
41202;BME280;26936;50.524;8.684;2023-03-04T13:16:29;99849.50;;;7.68;71.57
41202;BME280;26936;50.524;8.684;2023-03-04T13:18:57;99838.97;;;7.76;71.98
41202;BME280;26936;50.524;8.684;2023-03-04T13:21:24;99835.78;;;7.74;71.96
41202;BME280;26936;50.524;8.684;2023-03-04T13:23:51;99840.19;;;7.75;71.54
41202;BME280;26936;50.524;8.684;2023-03-04T13:28:49;99832.25;;;7.96;70.73
41202;BME280;26936;50.524;8.684;2023-03-04T13:31:18;99827.97;;;7.88;71.43
41202;BME280;26936;50.524;8.684;2023-03-04T13:33:46;99832.72;;;7.91;69.94
41202;BME280;26936;50.524;8.684;2023-03-04T13:36:33;99825.78;;;7.99;70.64
41202;BME280;26936;50.524;8.684;2023-03-04T13:41:50;99822.34;;;8.15;70.24
41202;BME280;26936;50.524;8.684;2023-03-04T13:44:34;99823.56;;;8.14;69.43
41202;BME280;26936;50.524;8.684;2023-03-04T13:47:08;99824.34;;;8.14;70.22
41202;BME280;26936;50.524;8.684;2023-03-04T13:49:38;99821.09;;;8.16;69.72
41202;BME280;26936;50.524;8.684;2023-03-04T13:52:39;99823.56;;;8.14;68.64
41202;BME280;26936;50.524;8.684;2023-03-04T13:55:39;99820.25;;;8.19;68.78
41202;BME280;26936;50.524;8.684;2023-03-04T13:58:20;99818.25;;;8.19;69.40
41202;BME280;26936;50.524;8.684;2023-03-04T14:00:49;99821.03;;;8.19;69.15
41202;BME280;26936;50.524;8.684;2023-03-04T14:03:24;99817.63;;;8.08;69.31
41202;BME280;26936;50.524;8.684;2023-03-04T14:06:15;99825.84;;;7.96;70.33
41202;BME280;26936;50.524;8.684;2023-03-04T14:08:41;99824.44;;;7.84;71.28
41202;BME280;26936;50.524;8.684;2023-03-04T14:11:17;99812.03;;;7.82;71.71
41202;BME280;26936;50.524;8.684;2023-03-04T14:13:43;99814.59;;;7.73;72.20
41202;BME280;26936;50.524;8.684;2023-03-04T14:16:09;99816.25;;;7.67;72.90
41202;BME280;26936;50.524;8.684;2023-03-04T14:18:34;99818.34;;;7.63;73.51
41202;BME280;26936;50.524;8.684;2023-03-04T14:21:00;99816.56;;;7.46;74.49
41202;BME280;26936;50.524;8.684;2023-03-04T14:25:51;99809.53;;;7.34;76.15
41202;BME280;26936;50.524;8.684;2023-03-04T14:28:27;99810.00;;;7.29;77.26